Spade, Texas
Current Conditions -  °F | °C
As of 6:51 AM on Monday 20 Oct 2014 (Local Time) from KLBB Reporting Station
Haze Haze  
Wind Chill: 52°   Ceiling: Unl
Heat Index: 52°   Visibility: 2.5mi
Dew Point: 50°   Wind: 3mph
Humidity: 94%   Direction: 290°WNW
Pressure: 30.1"   Gusts: NA
Location:  33.93°N, 102.15°W
Report Text: KLBB 201151Z 29003KT 2 1/2SM BR CLR 11/10 A3010 RMK AO2
Loading
Personal Weather Stations






























Interactive Weather Map
Tropical Storm Tracking
New forecast layout! Learn more

10-Day Weather Forecast

Advertisements
Track Severe Weather on mobile